createdAt,value
2022-11-11T00:00:00.000Z,6.62
2022-11-11T00:15:00.000Z,6.99
2022-11-11T00:30:00.000Z,7.16
2022-11-11T00:45:00.000Z,7.51
2022-11-11T01:00:00.000Z,7.59
2022-11-11T01:15:00.000Z,7.46
2022-11-11T01:30:00.000Z,7.01
2022-11-11T01:45:00.000Z,6.74
2022-11-11T02:00:00.000Z,6.73
2022-11-11T02:15:00.000Z,6.58
2022-11-11T02:30:00.000Z,6.47
2022-11-11T02:45:00.000Z,6.24
2022-11-11T03:00:00.000Z,6.01
2022-11-11T03:15:00.000Z,5.95
2022-11-11T03:30:00.000Z,5.88
2022-11-11T03:45:00.000Z,5.62
2022-11-11T04:00:00.000Z,5.46
2022-11-11T04:15:00.000Z,5.42
2022-11-11T04:30:00.000Z,5.36
2022-11-11T04:45:00.000Z,5.57
2022-11-11T05:00:00.000Z,6.22
2022-11-11T05:15:00.000Z,6.62
2022-11-11T05:30:00.000Z,7
2022-11-11T05:45:00.000Z,6.96
2022-11-11T06:00:00.000Z,6.67
2022-11-11T06:15:00.000Z,6.52
2022-11-11T06:30:00.000Z,6.84
2022-11-11T06:45:00.000Z,7.37
2022-11-11T07:00:00.000Z,7.96
2022-11-11T07:15:00.000Z,8.56
2022-11-11T07:30:00.000Z,9.11
2022-11-11T07:45:00.000Z,9.68
2022-11-11T08:00:00.000Z,9.75
2022-11-11T08:15:00.000Z,9.93
2022-11-11T08:30:00.000Z,11.13
2022-11-11T08:30:00.000Z,11.13
2022-11-11T08:30:00.000Z,11.13
2022-11-11T08:30:00.000Z,11.13
2022-11-11T09:30:00.000Z,15.58
2022-11-11T09:30:00.000Z,15.58
2022-11-11T09:30:00.000Z,15.58
2022-11-11T09:45:00.000Z,16.25
2022-11-11T09:45:00.000Z,16.25
2022-11-11T16:30:00.000Z,10.66
2022-11-11T16:45:00.000Z,10.5
2022-11-11T17:00:00.000Z,10.18
2022-11-11T17:15:00.000Z,10.01
2022-11-11T17:30:00.000Z,9.88
2022-11-11T17:45:00.000Z,9.68
2022-11-11T18:00:00.000Z,9.44
2022-11-11T18:15:00.000Z,9.49
2022-11-11T18:30:00.000Z,9.07
2022-11-11T18:45:00.000Z,8.88
2022-11-11T19:00:00.000Z,8.74
2022-11-11T19:15:00.000Z,8.54
2022-11-11T19:30:00.000Z,8.37
2022-11-11T19:45:00.000Z,8.06
2022-11-11T20:00:00.000Z,7.72
2022-11-11T20:15:00.000Z,7.42
2022-11-11T20:30:00.000Z,6.84
2022-11-11T20:45:00.000Z,6.84
2022-11-11T21:00:00.000Z,6.89
2022-11-11T21:15:00.000Z,6.93
2022-11-11T21:30:00.000Z,6.65
2022-11-11T21:45:00.000Z,6.51
2022-11-11T22:00:00.000Z,6.27
2022-11-11T22:15:00.000Z,6.61
2022-11-11T22:30:00.000Z,6.53
2022-11-11T22:45:00.000Z,6.68
2022-11-11T23:00:00.000Z,6.66
2022-11-11T23:15:00.000Z,6.06
2022-11-11T23:30:00.000Z,5.73
2022-11-11T23:45:00.000Z,5.47
